createdAt,value
2023-02-27T00:00:14.893Z,98.50
2023-02-27T00:02:43.525Z,98.50
2023-02-27T00:05:11.802Z,98.50
2023-02-27T00:07:38.782Z,98.50
2023-02-27T00:10:06.878Z,98.50
2023-02-27T00:12:39.927Z,98.50
2023-02-27T00:15:12.762Z,98.50
2023-02-27T00:17:39.694Z,98.50
2023-02-27T00:20:08.135Z,98.50
2023-02-27T00:22:34.880Z,98.50
2023-02-27T00:25:01.709Z,98.50
2023-02-27T00:27:28.523Z,98.50
2023-02-27T00:29:55.409Z,98.50
2023-02-27T00:32:22.224Z,98.50
2023-02-27T00:34:48.936Z,98.50
2023-02-27T00:37:15.870Z,98.50
2023-02-27T00:39:42.693Z,98.50
2023-02-27T00:42:09.600Z,98.50
2023-02-27T00:44:36.259Z,98.50
2023-02-27T00:47:03.160Z,98.50
2023-02-27T00:49:29.867Z,98.50
2023-02-27T00:51:56.591Z,98.50
2023-02-27T00:54:23.330Z,98.50
2023-02-27T00:56:50.097Z,98.50
2023-02-27T00:59:16.762Z,98.50
2023-02-27T01:01:44.530Z,98.50
2023-02-27T01:04:11.768Z,98.50
2023-02-27T01:06:38.454Z,98.50
2023-02-27T01:09:05.443Z,98.50
2023-02-27T01:11:32.224Z,98.50
2023-02-27T01:13:58.991Z,98.50
2023-02-27T01:16:26.913Z,98.50
2023-02-27T01:18:53.661Z,98.50
2023-02-27T01:21:20.450Z,98.50
2023-02-27T01:23:47.140Z,98.50
2023-02-27T01:26:13.822Z,98.50
2023-02-27T01:28:40.538Z,98.50
2023-02-27T01:31:07.637Z,98.50
2023-02-27T01:33:34.301Z,98.50
2023-02-27T01:36:01.383Z,98.50
2023-02-27T01:38:28.093Z,98.50
2023-02-27T01:40:54.946Z,98.50
2023-02-27T01:43:22.364Z,98.50
2023-02-27T01:45:49.599Z,98.50
2023-02-27T01:48:32.294Z,98.50
2023-02-27T01:51:07.256Z,98.50
2023-02-27T01:53:36.849Z,98.50
2023-02-27T01:56:12.504Z,98.50
2023-02-27T01:58:39.640Z,98.50
2023-02-27T02:01:07.032Z,98.50
2023-02-27T02:03:44.042Z,98.50
2023-02-27T02:06:12.415Z,98.50
2023-02-27T02:08:43.921Z,98.50
2023-02-27T02:11:10.839Z,98.50
2023-02-27T02:13:39.316Z,98.50
2023-02-27T02:16:43.772Z,98.50
2023-02-27T02:19:54.611Z,98.50
2023-02-27T02:23:12.091Z,98.50
2023-02-27T02:26:20.270Z,98.50
2023-02-27T02:29:11.121Z,98.50
2023-02-27T02:32:06.709Z,98.50
2023-02-27T02:34:57.878Z,98.50
2023-02-27T02:37:43.439Z,98.50
2023-02-27T02:40:28.443Z,98.50
2023-02-27T02:43:13.593Z,98.50
2023-02-27T02:45:58.600Z,98.50
2023-02-27T02:48:33.148Z,98.50
2023-02-27T02:51:24.966Z,98.50
2023-02-27T02:54:14.606Z,98.50
2023-02-27T02:56:47.415Z,98.50
2023-02-27T02:59:45.507Z,98.50
2023-02-27T03:02:17.084Z,98.50
2023-02-27T03:04:51.058Z,98.50
2023-02-27T03:07:28.551Z,98.50
2023-02-27T03:10:05.198Z,98.50
2023-02-27T03:12:33.848Z,98.50
2023-02-27T03:15:13.764Z,98.50
2023-02-27T03:17:47.317Z,98.50
2023-02-27T03:20:29.533Z,98.50
2023-02-27T03:23:00.035Z,98.50
2023-02-27T03:25:28.678Z,98.50
2023-02-27T03:28:00.026Z,98.50
2023-02-27T03:30:38.498Z,98.50
2023-02-27T03:33:37.979Z,98.50
2023-02-27T03:36:07.765Z,98.50
2023-02-27T03:39:00.861Z,98.50
2023-02-27T03:41:40.850Z,98.50
2023-02-27T03:44:22.705Z,98.50
2023-02-27T03:46:49.359Z,98.50
2023-02-27T03:49:16.086Z,98.50
2023-02-27T03:51:43.062Z,98.50
2023-02-27T03:54:14.962Z,98.50
2023-02-27T03:56:47.454Z,98.50
2023-02-27T03:59:14.934Z,98.50
2023-02-27T04:01:43.415Z,98.50
2023-02-27T04:04:12.785Z,98.50
2023-02-27T04:07:04.579Z,98.50
2023-02-27T04:10:16.369Z,98.50
2023-02-27T04:12:51.515Z,98.50
2023-02-27T04:15:25.642Z,98.50
2023-02-27T04:18:18.896Z,98.50
2023-02-27T04:20:58.707Z,98.50
2023-02-27T04:23:39.772Z,98.50
2023-02-27T04:26:06.391Z,98.50
2023-02-27T04:28:44.659Z,98.50
2023-02-27T04:31:14.368Z,98.50
2023-02-27T04:34:01.305Z,98.50
2023-02-27T04:36:49.345Z,98.50
2023-02-27T04:39:27.508Z,98.50
2023-02-27T04:42:06.875Z,98.50
2023-02-27T04:44:36.326Z,98.50
2023-02-27T04:47:05.957Z,98.50
2023-02-27T04:49:42.623Z,98.50
2023-02-27T04:52:36.419Z,98.50
2023-02-27T04:55:06.073Z,98.50
2023-02-27T04:57:48.817Z,98.50
2023-02-27T05:00:18.745Z,98.50
2023-02-27T05:02:52.271Z,98.50
2023-02-27T05:05:29.998Z,98.50
2023-02-27T05:08:04.275Z,98.50
2023-02-27T05:10:42.947Z,98.50
2023-02-27T05:13:21.008Z,98.50
2023-02-27T05:16:03.991Z,98.50
2023-02-27T05:18:31.050Z,98.50
2023-02-27T05:21:19.263Z,98.50
2023-02-27T05:24:23.604Z,98.50
2023-02-27T05:27:18.518Z,98.50
2023-02-27T05:30:04.022Z,98.50
2023-02-27T05:32:44.102Z,98.50
2023-02-27T05:35:24.214Z,98.50
2023-02-27T05:38:09.551Z,98.50
2023-02-27T05:40:41.872Z,98.50
2023-02-27T05:43:18.921Z,98.50
2023-02-27T05:45:50.144Z,98.50
2023-02-27T05:48:34.578Z,98.50
2023-02-27T05:51:03.541Z,98.50
2023-02-27T05:53:35.199Z,98.50
2023-02-27T05:56:05.120Z,98.50
2023-02-27T05:58:52.457Z,98.50
2023-02-27T06:01:19.119Z,98.50
2023-02-27T06:03:46.257Z,98.50
2023-02-27T06:06:16.379Z,98.50
2023-02-27T06:08:43.725Z,98.50
2023-02-27T06:11:10.521Z,98.50
2023-02-27T06:13:37.221Z,98.50
2023-02-27T06:16:04.116Z,98.50
2023-02-27T06:18:30.816Z,98.50
2023-02-27T06:20:57.460Z,98.50
2023-02-27T06:23:24.106Z,98.50
2023-02-27T06:25:50.813Z,98.50
2023-02-27T06:28:17.505Z,98.50
2023-02-27T06:30:46.302Z,98.50
2023-02-27T06:33:13.341Z,98.50
2023-02-27T06:35:40.023Z,98.50
2023-02-27T06:38:06.711Z,98.50
2023-02-27T06:40:33.341Z,98.50
2023-02-27T06:42:59.958Z,98.50
2023-02-27T06:45:26.641Z,98.50
2023-02-27T06:47:53.431Z,98.50
2023-02-27T06:50:20.186Z,98.50
2023-02-27T06:52:46.970Z,98.50
2023-02-27T06:55:19.818Z,98.50
2023-02-27T06:57:49.971Z,98.50
2023-02-27T07:00:17.702Z,98.50
2023-02-27T07:02:44.362Z,98.50
2023-02-27T07:05:12.109Z,98.50
2023-02-27T07:07:39.379Z,98.50
2023-02-27T07:10:12.450Z,98.50
2023-02-27T07:12:40.379Z,98.50
2023-02-27T07:15:08.302Z,98.50
2023-02-27T07:17:35.025Z,98.50
2023-02-27T07:20:01.671Z,98.50
2023-02-27T07:22:28.314Z,98.50
2023-02-27T07:24:54.926Z,98.50
2023-02-27T07:27:21.618Z,98.50
2023-02-27T07:29:48.262Z,98.50
2023-02-27T07:32:14.968Z,98.50
2023-02-27T07:34:41.640Z,98.50
2023-02-27T07:37:08.311Z,98.50
2023-02-27T07:39:35.029Z,98.50
2023-02-27T07:42:01.779Z,98.50
2023-02-27T07:44:28.432Z,98.50
2023-02-27T07:46:55.071Z,98.50
2023-02-27T07:49:21.818Z,98.50
2023-02-27T07:51:48.576Z,98.50
2023-02-27T07:54:15.446Z,98.50
2023-02-27T07:56:42.207Z,98.50
2023-02-27T07:59:08.948Z,98.50
2023-02-27T08:01:35.650Z,98.50
2023-02-27T08:04:02.300Z,98.50
2023-02-27T08:06:29.972Z,98.50
2023-02-27T08:08:56.773Z,98.50
2023-02-27T08:11:23.768Z,98.50
2023-02-27T08:14:05.885Z,98.50
2023-02-27T08:16:33.275Z,98.50
2023-02-27T08:19:00.685Z,98.50
2023-02-27T08:21:27.943Z,98.50
2023-02-27T08:23:54.868Z,98.50
2023-02-27T08:26:21.720Z,98.50
2023-02-27T08:28:48.551Z,98.50
2023-02-27T08:31:15.247Z,98.50
2023-02-27T08:33:41.932Z,98.50
2023-02-27T08:36:10.098Z,98.50
2023-02-27T08:38:36.944Z,98.50
2023-02-27T08:41:04.425Z,98.50
2023-02-27T08:43:31.358Z,98.50
2023-02-27T08:45:58.246Z,98.50
2023-02-27T08:48:25.279Z,98.50
2023-02-27T08:50:52.592Z,98.50
2023-02-27T08:53:19.466Z,98.50
2023-02-27T08:55:50.827Z,98.50
2023-02-27T08:58:18.444Z,98.50
2023-02-27T09:00:45.489Z,98.50
2023-02-27T09:03:12.549Z,98.50
2023-02-27T09:05:39.406Z,98.50
2023-02-27T09:08:07.091Z,98.50
2023-02-27T09:10:34.254Z,98.50
2023-02-27T09:13:01.622Z,98.50
2023-02-27T09:15:29.217Z,98.50
2023-02-27T09:18:00.095Z,98.50
2023-02-27T09:20:26.832Z,98.50
2023-02-27T09:22:53.651Z,98.50
2023-02-27T09:25:20.312Z,98.50
2023-02-27T09:27:47.085Z,98.50
2023-02-27T09:30:13.979Z,98.50
2023-02-27T09:32:40.654Z,98.50
2023-02-27T09:35:09.332Z,98.50
2023-02-27T09:37:36.454Z,98.50
2023-02-27T09:40:05.525Z,98.50
2023-02-27T09:42:45.302Z,98.50
2023-02-27T09:45:28.112Z,98.50
2023-02-27T09:47:59.983Z,98.50
2023-02-27T09:50:44.790Z,98.50
2023-02-27T09:53:21.793Z,98.50
2023-02-27T09:55:49.642Z,98.50
2023-02-27T09:58:26.394Z,98.50
2023-02-27T10:01:21.769Z,98.50
2023-02-27T10:04:08.844Z,98.50
2023-02-27T10:06:44.873Z,98.50
2023-02-27T10:09:34.985Z,98.50
2023-02-27T10:12:14.165Z,98.50
2023-02-27T10:14:46.845Z,98.50
2023-02-27T10:17:24.541Z,98.50
2023-02-27T10:19:53.255Z,98.50
2023-02-27T10:22:29.122Z,98.50
2023-02-27T10:25:18.062Z,98.50
2023-02-27T10:27:56.882Z,98.50
2023-02-27T10:30:34.686Z,98.50
2023-02-27T10:33:35.486Z,98.50
2023-02-27T10:36:03.520Z,98.50
2023-02-27T10:38:34.767Z,98.50
2023-02-27T10:41:03.273Z,98.50
2023-02-27T10:43:30.029Z,98.50
2023-02-27T10:46:00.701Z,98.50
2023-02-27T10:48:27.472Z,98.50
2023-02-27T10:51:19.585Z,98.50
2023-02-27T10:53:46.345Z,98.40
2023-02-27T10:56:27.956Z,98.50
2023-02-27T10:59:07.314Z,98.50
2023-02-27T11:01:46.967Z,98.50
2023-02-27T11:04:14.540Z,98.20
2023-02-27T11:06:42.306Z,97.20
2023-02-27T11:09:20.924Z,96.90
2023-02-27T11:11:48.178Z,96.60
2023-02-27T11:14:29.995Z,96.40
2023-02-27T11:16:59.514Z,96.70
2023-02-27T11:19:33.377Z,97.10
2023-02-27T11:22:27.952Z,96.60
2023-02-27T11:25:19.549Z,96.30
2023-02-27T11:27:46.864Z,96.30
2023-02-27T11:30:32.043Z,96.30
2023-02-27T11:33:01.372Z,97.20
2023-02-27T11:35:37.059Z,96.60
2023-02-27T11:38:16.821Z,96.30
2023-02-27T11:40:51.920Z,97.20
2023-02-27T11:43:39.940Z,98.40
2023-02-27T11:46:43.610Z,97.40
2023-02-27T11:49:03.040Z,96.80
2023-02-27T11:51:35.614Z,96.40
2023-02-27T11:54:12.871Z,96.80
2023-02-27T11:57:22.190Z,98.10
2023-02-27T12:00:20.907Z,97.20
2023-02-27T12:03:23.983Z,96.40
2023-02-27T12:05:56.078Z,96.70
2023-02-27T12:08:43.969Z,97.40
2023-02-27T12:11:22.478Z,98.50
2023-02-27T12:14:04.526Z,96.50
2023-02-27T12:16:59.133Z,95.70
2023-02-27T12:19:41.802Z,95.80
2023-02-27T12:22:32.361Z,96.40
2023-02-27T12:25:19.324Z,96.60
2023-02-27T12:27:59.633Z,96.10
2023-02-27T12:30:29.375Z,95.40
2023-02-27T12:33:09.486Z,97.80
2023-02-27T12:35:36.108Z,97.10
2023-02-27T12:38:04.462Z,96.20
2023-02-27T12:40:48.127Z,96.50
2023-02-27T12:43:22.583Z,95.80
2023-02-27T12:46:15.756Z,96.40
2023-02-27T12:49:03.636Z,96.30
2023-02-27T12:51:57.577Z,97.30
2023-02-27T12:54:40.826Z,97.10
2023-02-27T12:57:41.037Z,97.20
2023-02-27T13:00:15.031Z,96.70
2023-02-27T13:03:08.679Z,96.20
2023-02-27T13:05:51.682Z,96.60
2023-02-27T13:08:21.807Z,96.50
2023-02-27T13:10:54.257Z,97.50
2023-02-27T13:13:40.117Z,98.10
2023-02-27T13:16:29.167Z,97.70
2023-02-27T13:19:15.479Z,97.90
2023-02-27T13:21:59.612Z,98.40
2023-02-27T13:24:31.136Z,98.40
2023-02-27T13:27:03.641Z,98.50
2023-02-27T13:29:41.230Z,98.50
2023-02-27T13:32:41.368Z,98.50
2023-02-27T13:35:28.276Z,98.50
2023-02-27T13:37:57.967Z,98.50
2023-02-27T13:40:39.502Z,98.50
2023-02-27T13:43:30.352Z,98.50
2023-02-27T13:46:17.310Z,98.50
2023-02-27T13:48:46.326Z,98.50
2023-02-27T13:51:34.963Z,98.50
2023-02-27T13:54:13.944Z,98.50
2023-02-27T13:56:50.495Z,98.50
2023-02-27T13:59:29.963Z,98.50
2023-02-27T14:02:02.796Z,98.50
2023-02-27T14:04:32.973Z,98.50
2023-02-27T14:07:07.086Z,98.50
2023-02-27T14:09:38.515Z,98.50
2023-02-27T14:12:08.105Z,98.50
2023-02-27T14:14:47.872Z,98.50
2023-02-27T14:17:37.160Z,98.50
2023-02-27T14:20:29.880Z,98.50
2023-02-27T14:23:15.359Z,98.50
2023-02-27T14:25:51.704Z,98.50
2023-02-27T14:28:32.293Z,98.50
2023-02-27T14:31:03.067Z,98.50
2023-02-27T14:33:53.976Z,98.50
2023-02-27T14:36:29.516Z,98.50
2023-02-27T14:39:00.884Z,98.50
2023-02-27T14:41:48.132Z,98.50
2023-02-27T14:44:27.923Z,98.50
2023-02-27T14:47:02.708Z,98.50
2023-02-27T14:49:31.939Z,98.50
2023-02-27T14:52:12.415Z,98.50
2023-02-27T14:54:39.101Z,98.50
2023-02-27T14:57:07.580Z,98.50
2023-02-27T14:59:43.967Z,98.50
2023-02-27T15:02:33.544Z,98.50
2023-02-27T15:05:03.262Z,98.50
2023-02-27T15:07:33.071Z,98.50
2023-02-27T15:10:05.922Z,98.50
2023-02-27T15:12:38.053Z,98.50
2023-02-27T15:15:10.491Z,98.50
2023-02-27T15:17:42.005Z,98.50
2023-02-27T15:20:30.110Z,98.50
2023-02-27T15:23:02.551Z,98.50
2023-02-27T15:25:34.941Z,98.50
2023-02-27T15:28:07.858Z,98.50
2023-02-27T15:30:34.788Z,98.50
2023-02-27T15:33:02.814Z,98.50
2023-02-27T15:35:41.907Z,98.50
2023-02-27T15:38:24.729Z,98.50
2023-02-27T15:40:51.721Z,98.50
2023-02-27T15:43:19.165Z,98.50
2023-02-27T15:45:46.366Z,98.50
2023-02-27T15:48:15.452Z,98.50
2023-02-27T15:50:48.205Z,98.50
2023-02-27T15:53:19.815Z,98.50
2023-02-27T15:55:51.329Z,98.50
2023-02-27T15:58:25.457Z,98.50
2023-02-27T16:01:13.837Z,98.50
2023-02-27T16:03:45.050Z,98.50
2023-02-27T16:06:17.114Z,98.50
2023-02-27T16:08:55.223Z,98.50
2023-02-27T16:11:31.031Z,98.50
2023-02-27T16:13:58.146Z,98.50
2023-02-27T16:16:34.950Z,98.50
2023-02-27T16:19:30.365Z,98.50
2023-02-27T16:22:15.146Z,98.50
2023-02-27T16:24:42.747Z,98.50
2023-02-27T16:27:23.582Z,98.50
2023-02-27T16:29:51.019Z,98.50
2023-02-27T16:32:30.436Z,98.50
2023-02-27T16:35:15.405Z,98.50
2023-02-27T16:37:43.409Z,98.50
2023-02-27T16:40:19.200Z,98.50
2023-02-27T16:42:46.625Z,98.50
2023-02-27T16:45:22.644Z,98.50
2023-02-27T16:47:51.696Z,98.50
2023-02-27T16:50:41.602Z,98.50
2023-02-27T16:53:08.892Z,98.50
2023-02-27T16:55:39.564Z,98.50
2023-02-27T16:58:06.703Z,98.50
2023-02-27T17:00:36.247Z,98.50
2023-02-27T17:03:03.003Z,98.50
2023-02-27T17:05:29.729Z,98.50
2023-02-27T17:07:56.374Z,98.50
2023-02-27T17:10:24.612Z,98.50
2023-02-27T17:12:52.209Z,98.50
2023-02-27T17:15:19.646Z,98.50
2023-02-27T17:17:46.290Z,98.50
2023-02-27T17:20:14.271Z,98.50
2023-02-27T17:22:43.996Z,98.50
2023-02-27T17:25:11.943Z,98.50
2023-02-27T17:27:38.834Z,98.50
2023-02-27T17:30:06.718Z,98.50
2023-02-27T17:32:34.541Z,98.50
2023-02-27T17:35:01.708Z,98.50
2023-02-27T17:37:28.518Z,98.50
2023-02-27T17:39:55.397Z,98.50
2023-02-27T17:42:25.461Z,98.50
2023-02-27T17:44:52.196Z,98.50
2023-02-27T17:47:19.211Z,98.50
2023-02-27T17:49:45.945Z,98.50
2023-02-27T17:52:12.629Z,98.50
2023-02-27T17:54:52.019Z,98.50
2023-02-27T17:57:19.031Z,98.50
2023-02-27T17:59:45.671Z,98.50
2023-02-27T18:02:13.622Z,98.50
2023-02-27T18:04:40.555Z,98.50
2023-02-27T18:07:07.264Z,98.50
2023-02-27T18:09:33.893Z,98.50
2023-02-27T18:12:00.568Z,98.50
2023-02-27T18:14:27.252Z,98.50
2023-02-27T18:16:53.967Z,98.50
2023-02-27T18:19:20.777Z,98.50
2023-02-27T18:21:47.430Z,98.50
2023-02-27T18:24:16.185Z,98.50
2023-02-27T18:26:43.582Z,98.50
2023-02-27T18:29:11.917Z,98.50
2023-02-27T18:31:43.223Z,98.50
2023-02-27T18:34:11.096Z,98.50
2023-02-27T18:36:38.426Z,98.50
2023-02-27T18:39:06.106Z,98.50
2023-02-27T18:41:33.326Z,98.50
2023-02-27T18:44:00.119Z,98.50
2023-02-27T18:46:27.936Z,98.50
2023-02-27T18:48:55.144Z,98.50
2023-02-27T18:51:22.056Z,98.50
2023-02-27T18:53:50.197Z,98.50
2023-02-27T18:56:19.944Z,98.50
2023-02-27T18:58:47.043Z,98.50
2023-02-27T19:01:24.473Z,98.50
2023-02-27T19:03:53.235Z,98.50
2023-02-27T19:06:20.053Z,98.50
2023-02-27T19:08:46.977Z,98.50
2023-02-27T19:11:24.908Z,98.50
2023-02-27T19:13:51.884Z,98.50
2023-02-27T19:16:18.725Z,98.50
2023-02-27T19:18:45.563Z,98.50
2023-02-27T19:21:12.312Z,98.50
2023-02-27T19:23:39.105Z,98.50
2023-02-27T19:26:05.894Z,98.50
2023-02-27T19:28:33.735Z,98.50
2023-02-27T19:31:05.788Z,98.50
2023-02-27T19:33:32.433Z,98.50
2023-02-27T19:35:59.733Z,98.50
2023-02-27T19:38:26.448Z,98.50
2023-02-27T19:40:53.101Z,98.50
2023-02-27T19:43:19.720Z,98.50
2023-02-27T19:45:46.390Z,98.50
2023-02-27T19:48:15.092Z,98.50
2023-02-27T19:50:41.736Z,98.50
2023-02-27T19:53:08.405Z,98.50
2023-02-27T19:55:35.044Z,98.50
2023-02-27T19:58:01.699Z,98.50
2023-02-27T20:00:29.435Z,98.50
2023-02-27T20:02:56.760Z,98.50
2023-02-27T20:05:24.631Z,98.50
2023-02-27T20:07:52.859Z,98.50
2023-02-27T20:10:19.586Z,98.50
2023-02-27T20:12:46.197Z,98.50
2023-02-27T20:15:12.954Z,98.50
2023-02-27T20:17:41.887Z,98.50
2023-02-27T20:20:09.529Z,98.50
2023-02-27T20:22:36.915Z,98.50
2023-02-27T20:25:03.660Z,98.50
2023-02-27T20:27:30.357Z,98.50
2023-02-27T20:29:57.502Z,98.50
2023-02-27T20:32:24.944Z,98.50
2023-02-27T20:34:53.646Z,98.50
2023-02-27T20:37:21.512Z,98.50
2023-02-27T20:39:49.387Z,98.50
2023-02-27T20:42:16.250Z,98.50
2023-02-27T20:44:42.967Z,98.50
2023-02-27T20:47:09.747Z,98.50
2023-02-27T20:49:36.837Z,98.50
2023-02-27T20:52:03.753Z,98.50
2023-02-27T20:54:30.474Z,98.50
2023-02-27T20:56:57.253Z,98.50
2023-02-27T20:59:25.486Z,98.50
2023-02-27T21:01:53.174Z,98.50
2023-02-27T21:04:26.284Z,98.50
2023-02-27T21:06:54.627Z,98.50
2023-02-27T21:09:22.232Z,98.50
2023-02-27T21:11:48.916Z,98.50
2023-02-27T21:14:15.547Z,98.50
2023-02-27T21:16:42.237Z,98.50
2023-02-27T21:19:09.004Z,98.50
2023-02-27T21:21:36.975Z,98.50
2023-02-27T21:24:05.529Z,98.50
2023-02-27T21:26:38.222Z,98.50
2023-02-27T21:29:08.919Z,98.50
2023-02-27T21:31:37.169Z,98.50
2023-02-27T21:34:06.916Z,98.50
2023-02-27T21:36:42.107Z,98.50
2023-02-27T21:39:12.626Z,98.50
2023-02-27T21:41:39.459Z,98.50
2023-02-27T21:44:07.992Z,98.50
2023-02-27T21:46:35.440Z,98.50
2023-02-27T21:49:02.244Z,98.50
2023-02-27T21:51:39.976Z,98.50
2023-02-27T21:54:10.291Z,98.50
2023-02-27T21:56:37.000Z,98.50
2023-02-27T21:59:04.268Z,98.50
2023-02-27T22:01:31.670Z,98.50
2023-02-27T22:03:58.636Z,98.50
2023-02-27T22:06:27.738Z,98.50
2023-02-27T22:08:58.776Z,98.50
2023-02-27T22:11:27.224Z,98.50
2023-02-27T22:13:54.255Z,98.50
2023-02-27T22:16:21.737Z,98.50
2023-02-27T22:18:48.939Z,98.50
2023-02-27T22:21:18.809Z,98.50
2023-02-27T22:23:46.524Z,98.50
2023-02-27T22:26:15.958Z,98.50
2023-02-27T22:28:42.894Z,98.50
2023-02-27T22:31:15.760Z,98.50
2023-02-27T22:33:46.768Z,98.50
2023-02-27T22:36:20.142Z,98.50
2023-02-27T22:38:48.054Z,98.50
2023-02-27T22:41:17.759Z,98.50
2023-02-27T22:43:45.287Z,98.50
2023-02-27T22:46:14.463Z,98.50
2023-02-27T22:48:41.132Z,98.50
2023-02-27T22:51:12.615Z,98.50
2023-02-27T22:53:40.517Z,98.50
2023-02-27T22:56:10.022Z,98.50
2023-02-27T22:58:38.974Z,98.50
2023-02-27T23:01:14.639Z,98.50
2023-02-27T23:03:42.150Z,98.50
2023-02-27T23:06:11.377Z,98.50
2023-02-27T23:08:38.586Z,98.50
2023-02-27T23:11:05.438Z,98.50
2023-02-27T23:13:32.268Z,98.50
2023-02-27T23:16:00.037Z,98.50
2023-02-27T23:18:27.496Z,98.50
2023-02-27T23:20:54.625Z,98.50
2023-02-27T23:23:22.877Z,98.50
2023-02-27T23:25:49.573Z,98.50
2023-02-27T23:28:16.317Z,98.50
2023-02-27T23:30:43.087Z,98.50
2023-02-27T23:33:09.713Z,98.50
2023-02-27T23:35:36.620Z,98.50
2023-02-27T23:38:03.368Z,98.50
2023-02-27T23:40:30.104Z,98.50
2023-02-27T23:42:56.824Z,98.50
2023-02-27T23:45:23.523Z,98.50
2023-02-27T23:47:55.703Z,98.50
2023-02-27T23:50:31.815Z,98.50
2023-02-27T23:52:59.964Z,98.50
2023-02-27T23:55:30.212Z,98.50
2023-02-27T23:57:58.913Z,98.50
